Time;durP1;ratioP1;P1;durP2;ratioP2;P2;SDS_P1;SDS_P2;PMS_P1;PMS_P2;Temp;Humidity;BMP_temperature;BMP_pressure;BME280_temperature;BME280_humidity;BME280_pressure;Samples;Min_cycle;Max_cycle;Signal;HPM_P1;HPM_P2
2019/07/13 00:02:22;;;;;;;8.4;6.9;;;;;;;16.32;93.25977;1001.506;;;;
2019/07/13 00:04:47;;;;;;;9.1;7;;;;;;;16.27;93.80664;1001.485;;;;
2019/07/13 00:07:12;;;;;;;10.4;7;;;;;;;16.41;92.69824;1001.487;;;;
2019/07/13 00:09:37;;;;;;;10.3;7.5;;;;;;;16.21;93.45703;1001.493;;;;
2019/07/13 00:12:02;;;;;;;10.3;7.7;;;;;;;16.12;94.16797;1001.545;;;;
2019/07/13 00:14:27;;;;;;;10.6;7.7;;;;;;;16.18;93.75293;1001.522;;;;
2019/07/13 00:16:52;;;;;;;10.5;7.8;;;;;;;16.09;94.30176;1001.581;;;;
2019/07/13 00:19:17;;;;;;;10.5;8.3;;;;;;;15.99;94.34961;1001.58;;;;
2019/07/13 00:21:43;;;;;;;11.1;8.4;;;;;;;15.94;94.7207;1001.556;;;;
2019/07/13 00:24:08;;;;;;;11.3;8.5;;;;;;;15.87;94.6709;1001.548;;;;
2019/07/13 00:26:33;;;;;;;11.4;8.2;;;;;;;15.86;94.72656;1001.545;;;;
2019/07/13 00:28:58;;;;;;;10.6;8.1;;;;;;;15.97;94.39063;1001.515;;;;
2019/07/13 00:31:24;;;;;;;9.3;8;;;;;;;15.88;94.40625;1001.55;;;;
2019/07/13 00:33:49;;;;;;;12.1;8.6;;;;;;;15.87;94.41504;1001.645;;;;
2019/07/13 00:36:14;;;;;;;11;8.4;;;;;;;15.86;94.27441;1001.595;;;;
2019/07/13 00:38:39;;;;;;;12.6;8.3;;;;;;;15.89;94.26855;1001.66;;;;
2019/07/13 00:41:04;;;;;;;11.6;8.8;;;;;;;15.9;94.20313;1001.751;;;;
2019/07/13 00:43:29;;;;;;;9.9;8.2;;;;;;;15.87;94.24121;1001.663;;;;
2019/07/13 00:45:55;;;;;;;12.3;9.1;;;;;;;15.81;94.50781;1001.71;;;;
2019/07/13 00:48:20;;;;;;;13.6;9.7;;;;;;;15.76;94.55469;1001.719;;;;
2019/07/13 00:50:45;;;;;;;11.4;9;;;;;;;15.9;94.25879;1001.734;;;;
2019/07/13 00:53:11;;;;;;;11.8;10;;;;;;;15.79;94.41113;1001.618;;;;
2019/07/13 00:55:35;;;;;;;14.4;9.6;;;;;;;15.82;94.56836;1001.622;;;;
2019/07/13 00:58:00;;;;;;;14.2;9.2;;;;;;;15.79;94.31738;1001.627;;;;
2019/07/13 01:00:26;;;;;;;13.9;10.6;;;;;;;15.67;95.11621;1001.602;;;;
2019/07/13 01:02:50;;;;;;;14.9;10.7;;;;;;;15.64;94.93457;1001.647;;;;
2019/07/13 01:05:16;;;;;;;14;10.7;;;;;;;15.55;95.34375;1001.698;;;;
2019/07/13 01:07:41;;;;;;;13.4;10.9;;;;;;;15.66;95.03125;1001.683;;;;
2019/07/13 01:10:06;;;;;;;14.8;10.1;;;;;;;15.65;94.70508;1001.672;;;;
2019/07/13 01:12:31;;;;;;;12.2;9.6;;;;;;;15.65;94.57715;1001.695;;;;
2019/07/13 01:14:57;;;;;;;13.6;10.4;;;;;;;15.57;94.88379;1001.754;;;;
2019/07/13 01:17:22;;;;;;;16;11.1;;;;;;;15.53;95.08301;1001.723;;;;
2019/07/13 01:19:47;;;;;;;14.3;11.7;;;;;;;15.6;95.35352;1001.764;;;;
2019/07/13 01:22:12;;;;;;;17.3;11.4;;;;;;;15.54;95.14453;1001.785;;;;
2019/07/13 01:24:37;;;;;;;15.9;12;;;;;;;15.57;95.60254;1001.774;;;;
2019/07/13 01:27:03;;;;;;;15.7;11.5;;;;;;;15.53;95.37207;1001.76;;;;
2019/07/13 01:29:28;;;;;;;14.9;11.7;;;;;;;15.51;95.04395;1001.777;;;;
2019/07/13 01:31:53;;;;;;;18.9;12.4;;;;;;;15.5;95.0791;1001.736;;;;
2019/07/13 01:34:18;;;;;;;15.6;11.8;;;;;;;15.58;94.37695;1001.675;;;;
2019/07/13 01:36:44;;;;;;;15.2;11.7;;;;;;;15.53;94.74707;1001.715;;;;
2019/07/13 01:39:09;;;;;;;18.9;12.3;;;;;;;15.49;94.83203;1001.675;;;;
2019/07/13 01:41:34;;;;;;;16.3;11.1;;;;;;;15.54;94.09082;1001.675;;;;
2019/07/13 01:43:59;;;;;;;16.8;11.8;;;;;;;15.41;94.68652;1001.692;;;;
2019/07/13 01:46:24;;;;;;;15;11.2;;;;;;;15.46;94.69629;1001.785;;;;
2019/07/13 01:48:49;;;;;;;14.9;11.6;;;;;;;15.41;94.92969;1001.727;;;;
2019/07/13 01:51:14;;;;;;;14.1;10.9;;;;;;;15.44;94.59082;1001.747;;;;
2019/07/13 01:53:39;;;;;;;14.7;11;;;;;;;15.43;94.41309;1001.799;;;;
2019/07/13 01:56:05;;;;;;;14.2;11.2;;;;;;;15.37;94.8877;1001.818;;;;
2019/07/13 01:58:30;;;;;;;13.1;10.3;;;;;;;15.42;94.22559;1001.825;;;;
2019/07/13 02:00:55;;;;;;;15;11;;;;;;;15.31;94.75977;1001.853;;;;
2019/07/13 02:03:20;;;;;;;15.6;11.6;;;;;;;15.27;95.0166;1001.874;;;;
2019/07/13 02:05:45;;;;;;;13.5;11.1;;;;;;;15.26;95.54688;1001.889;;;;
2019/07/13 02:08:11;;;;;;;16.2;12.1;;;;;;;15.17;95.66602;1001.887;;;;
2019/07/13 02:10:36;;;;;;;14.8;11.1;;;;;;;15.32;94.82031;1001.916;;;;
2019/07/13 02:13:01;;;;;;;13.6;11.2;;;;;;;15.26;95.00098;1001.902;;;;
2019/07/13 02:15:26;;;;;;;15.3;11.8;;;;;;;15.19;95.12598;1001.899;;;;
2019/07/13 02:17:52;;;;;;;16.8;12.3;;;;;;;15.25;95.16113;1001.899;;;;
2019/07/13 02:20:17;;;;;;;18.5;12.6;;;;;;;15.18;95.31934;1001.91;;;;
2019/07/13 02:22:42;;;;;;;21.3;13.2;;;;;;;15.23;95.27441;1001.967;;;;
2019/07/13 02:25:07;;;;;;;17.4;12.8;;;;;;;15.27;95.34082;1002.003;;;;
2019/07/13 02:27:33;;;;;;;17.8;13;;;;;;;15.2;95.53125;1002.072;;;;
2019/07/13 02:29:58;;;;;;;18.5;13.6;;;;;;;15.22;95.22461;1002.095;;;;
2019/07/13 02:32:23;;;;;;;18.3;13.4;;;;;;;15.27;95.34082;1002.206;;;;
2019/07/13 02:34:48;;;;;;;19.6;13.6;;;;;;;15.24;95.49512;1002.169;;;;
2019/07/13 02:37:14;;;;;;;17;12.9;;;;;;;15.2;95.34766;1002.174;;;;
2019/07/13 02:39:39;;;;;;;18.3;13.7;;;;;;;15.19;95.62402;1002.192;;;;
2019/07/13 02:42:04;;;;;;;17;14.1;;;;;;;15.05;96.25195;1002.248;;;;
2019/07/13 02:44:29;;;;;;;21.6;14.3;;;;;;;15.08;96.29395;1002.315;;;;
2019/07/13 02:46:54;;;;;;;21.8;15.4;;;;;;;15.13;96.08398;1002.324;;;;
2019/07/13 02:49:20;;;;;;;19.1;14.4;;;;;;;15.15;95.99609;1002.378;;;;
2019/07/13 02:51:45;;;;;;;18.5;14.8;;;;;;;15.27;95.53711;1002.384;;;;
2019/07/13 02:54:10;;;;;;;19.3;14;;;;;;;15.3;95.23047;1002.412;;;;
2019/07/13 02:56:35;;;;;;;19.2;13.3;;;;;;;15.4;94.63867;1002.407;;;;
2019/07/13 02:59:00;;;;;;;17.4;13.6;;;;;;;15.39;94.91211;1002.474;;;;
2019/07/13 03:01:25;;;;;;;17;13.2;;;;;;;15.55;94.68359;1002.472;;;;
2019/07/13 03:03:51;;;;;;;16.5;12.3;;;;;;;15.57;93.58691;1002.419;;;;
2019/07/13 03:06:16;;;;;;;18.9;12.9;;;;;;;15.5;94.20801;1002.465;;;;
2019/07/13 03:08:41;;;;;;;19;13;;;;;;;15.57;94.11816;1002.464;;;;
2019/07/13 03:11:06;;;;;;;16.7;12.9;;;;;;;15.56;94.12988;1002.459;;;;
2019/07/13 03:13:31;;;;;;;19.9;13.7;;;;;;;15.59;93.80176;1002.409;;;;
2019/07/13 03:15:56;;;;;;;17.3;13;;;;;;;15.56;93.60645;1002.376;;;;
2019/07/13 03:18:21;;;;;;;17.8;12.7;;;;;;;15.5;93.98828;1002.382;;;;
2019/07/13 03:20:46;;;;;;;18.2;13.2;;;;;;;15.46;94.00391;1002.402;;;;
2019/07/13 03:23:11;;;;;;;18.1;13.9;;;;;;;15.43;94.35547;1002.424;;;;
2019/07/13 03:25:37;;;;;;;18.5;13.8;;;;;;;15.4;94.33789;1002.49;;;;
2019/07/13 03:28:02;;;;;;;17.8;13.6;;;;;;;15.42;94.3877;1002.496;;;;
2019/07/13 03:30:27;;;;;;;18;13.3;;;;;;;15.42;94.16797;1002.428;;;;
2019/07/13 03:32:52;;;;;;;18.8;14.2;;;;;;;15.47;94.08691;1002.46;;;;
2019/07/13 03:35:17;;;;;;;19.8;13.8;;;;;;;15.51;93.5752;1002.496;;;;
2019/07/13 03:37:43;;;;;;;16.4;12.8;;;;;;;15.68;93.08887;1002.553;;;;
2019/07/13 03:40:08;;;;;;;18.3;13.7;;;;;;;15.58;93.69336;1002.513;;;;
2019/07/13 03:42:33;;;;;;;17.7;13.1;;;;;;;15.57;93.64453;1002.495;;;;
2019/07/13 03:44:58;;;;;;;18.5;13.5;;;;;;;15.6;93.89551;1002.525;;;;
2019/07/13 03:47:23;;;;;;;15.6;13.2;;;;;;;15.61;93.37695;1002.511;;;;
2019/07/13 03:49:48;;;;;;;15.5;13.1;;;;;;;15.48;94.13477;1002.557;;;;
2019/07/13 03:52:13;;;;;;;19.3;13.7;;;;;;;15.53;94.01758;1002.512;;;;
2019/07/13 03:54:39;;;;;;;16.3;13.2;;;;;;;15.59;93.62598;1002.553;;;;
2019/07/13 03:57:04;;;;;;;17.4;13.2;;;;;;;15.77;92.98047;1002.573;;;;
2019/07/13 03:59:29;;;;;;;16;12.8;;;;;;;15.71;93.5;1002.587;;;;
2019/07/13 04:02:28;;;;;;;17.8;13.1;;;;;;;15.76;92.53809;1002.595;;;;
2019/07/13 04:04:53;;;;;;;18.9;13.1;;;;;;;15.75;93.19727;1002.634;;;;
2019/07/13 04:07:18;;;;;;;17;13.1;;;;;;;15.85;92.51074;1002.615;;;;
2019/07/13 04:09:43;;;;;;;17;13;;;;;;;15.92;91.89844;1002.617;;;;
2019/07/13 04:12:08;;;;;;;18.4;13.1;;;;;;;15.77;92.58887;1002.664;;;;
2019/07/13 04:14:34;;;;;;;16.8;12.9;;;;;;;15.82;92.3877;1002.658;;;;
2019/07/13 04:16:59;;;;;;;17.9;12.8;;;;;;;15.8;92.53613;1002.677;;;;
2019/07/13 04:19:24;;;;;;;16.6;12.7;;;;;;;15.85;92.16309;1002.66;;;;
2019/07/13 04:21:49;;;;;;;17.5;13.2;;;;;;;15.91;92.4082;1002.629;;;;
2019/07/13 04:24:14;;;;;;;18.3;13.3;;;;;;;15.86;92.2002;1002.724;;;;
2019/07/13 04:26:39;;;;;;;16.7;12.7;;;;;;;15.86;91.99121;1002.775;;;;
2019/07/13 04:29:04;;;;;;;19.1;13;;;;;;;15.95;91.70898;1002.729;;;;
2019/07/13 04:31:29;;;;;;;17.7;12.8;;;;;;;15.95;91.46387;1002.794;;;;
2019/07/13 04:33:54;;;;;;;15.5;13.2;;;;;;;15.94;91.66113;1002.777;;;;
2019/07/13 04:36:19;;;;;;;16.5;13;;;;;;;15.93;91.63574;1002.803;;;;
2019/07/13 04:38:44;;;;;;;17.5;12.8;;;;;;;16.07;90.73633;1002.8;;;;
2019/07/13 04:41:09;;;;;;;18.5;12.5;;;;;;;16.07;91.25781;1002.797;;;;
2019/07/13 04:43:34;;;;;;;15.9;11.9;;;;;;;16.08;90.94922;1002.864;;;;
2019/07/13 04:46:00;;;;;;;17.3;12.5;;;;;;;16.08;90.9834;1002.882;;;;
2019/07/13 04:48:25;;;;;;;19.3;12.9;;;;;;;16;91.69727;1002.926;;;;
2019/07/13 04:50:50;;;;;;;16.9;13;;;;;;;16.11;91.18652;1002.924;;;;
2019/07/13 04:53:15;;;;;;;19.1;12.7;;;;;;;15.89;91.71875;1002.985;;;;
2019/07/13 04:55:40;;;;;;;17.8;13;;;;;;;15.99;91.83398;1003.02;;;;
2019/07/13 04:58:05;;;;;;;18;12.5;;;;;;;16.19;90.7959;1002.994;;;;
2019/07/13 05:00:30;;;;;;;16.5;12.4;;;;;;;16.21;90.67578;1003.016;;;;
2019/07/13 05:02:55;;;;;;;17.9;12.1;;;;;;;16.31;90.18359;1003.031;;;;
2019/07/13 05:05:21;;;;;;;15.6;12.7;;;;;;;16.11;91.20996;1003.106;;;;
2019/07/13 05:07:46;;;;;;;17.1;12.9;;;;;;;16.1;91.12695;1003.128;;;;
2019/07/13 05:10:11;;;;;;;16.6;13.7;;;;;;;15.94;91.27832;1003.191;;;;
2019/07/13 05:12:36;;;;;;;18.7;14.3;;;;;;;16.07;91.06152;1003.24;;;;
2019/07/13 05:15:01;;;;;;;18.6;14.3;;;;;;;15.93;91.50781;1003.269;;;;
2019/07/13 05:17:26;;;;;;;20.6;14.6;;;;;;;15.95;91.44434;1003.318;;;;
2019/07/13 05:19:51;;;;;;;17.6;14.5;;;;;;;15.79;91.89551;1003.304;;;;
2019/07/13 05:22:16;;;;;;;19.4;15;;;;;;;15.91;91.93164;1003.328;;;;
2019/07/13 05:24:41;;;;;;;20;15.1;;;;;;;15.93;91.45996;1003.328;;;;
2019/07/13 05:27:07;;;;;;;21.7;15.1;;;;;;;15.85;91.73438;1003.398;;;;
2019/07/13 05:29:32;;;;;;;20.9;15;;;;;;;15.88;91.97168;1003.382;;;;
2019/07/13 05:31:57;;;;;;;19.9;15.1;;;;;;;15.9;92.00098;1003.417;;;;
2019/07/13 05:34:22;;;;;;;19.2;15.1;;;;;;;15.87;92.01855;1003.488;;;;
2019/07/13 05:36:47;;;;;;;21.2;16.2;;;;;;;15.77;92.35254;1003.471;;;;
2019/07/13 05:39:12;;;;;;;24.3;16.5;;;;;;;15.72;92.85547;1003.471;;;;
2019/07/13 05:41:37;;;;;;;19.9;16.4;;;;;;;15.81;92.55957;1003.501;;;;
2019/07/13 05:44:02;;;;;;;23.5;15.7;;;;;;;15.84;92.20801;1003.482;;;;
2019/07/13 05:46:28;;;;;;;20.8;15;;;;;;;15.95;91.88281;1003.509;;;;
2019/07/13 05:48:53;;;;;;;22.8;15.5;;;;;;;15.95;91.91992;1003.525;;;;
2019/07/13 05:51:18;;;;;;;18.8;15.6;;;;;;;15.94;91.78809;1003.595;;;;
2019/07/13 05:53:43;;;;;;;21.7;15;;;;;;;16.14;91.51855;1003.625;;;;
2019/07/13 05:56:08;;;;;;;23.4;15;;;;;;;16.04;91.83203;1003.633;;;;
2019/07/13 05:58:33;;;;;;;20.3;15.3;;;;;;;16.08;91.56152;1003.593;;;;
2019/07/13 06:00:58;;;;;;;20.7;14.7;;;;;;;16.15;90.97363;1003.699;;;;
2019/07/13 06:03:23;;;;;;;22.3;14.9;;;;;;;16.07;91.0498;1003.658;;;;
2019/07/13 06:05:48;;;;;;;20.8;14.3;;;;;;;16.13;91.08594;1003.681;;;;
2019/07/13 06:08:14;;;;;;;23.2;15.7;;;;;;;16.13;91.04102;1003.739;;;;
2019/07/13 06:10:39;;;;;;;20.2;15.1;;;;;;;16.09;91.28711;1003.753;;;;
2019/07/13 06:13:04;;;;;;;20.2;14.2;;;;;;;16.19;90.75098;1003.72;;;;
2019/07/13 06:15:29;;;;;;;23.4;14.2;;;;;;;16.21;91.00977;1003.774;;;;
2019/07/13 06:17:55;;;;;;;22.3;14.1;;;;;;;16.53;89.38086;1003.839;;;;
2019/07/13 06:20:20;;;;;;;19.2;13.9;;;;;;;16.49;89.32715;1003.817;;;;
2019/07/13 06:22:45;;;;;;;18.5;13.6;;;;;;;16.5;88.91309;1003.812;;;;
2019/07/13 06:25:10;;;;;;;19.1;13.4;;;;;;;16.49;88.95605;1003.878;;;;
2019/07/13 06:27:35;;;;;;;17.3;13.1;;;;;;;16.54;87.91016;1003.872;;;;
2019/07/13 06:30:00;;;;;;;21.1;13.8;;;;;;;16.55;88.73633;1003.874;;;;
2019/07/13 06:32:26;;;;;;;20.9;13.3;;;;;;;16.62;88.49512;1003.877;;;;
2019/07/13 06:34:51;;;;;;;18.9;13;;;;;;;16.8;87.24121;1003.855;;;;
2019/07/13 06:37:16;;;;;;;17.5;12.6;;;;;;;16.71;87.64258;1003.891;;;;
2019/07/13 06:39:41;;;;;;;20;13;;;;;;;16.77;87.21191;1003.952;;;;
2019/07/13 06:42:06;;;;;;;18.5;12.7;;;;;;;16.73;87.1123;1003.954;;;;
2019/07/13 06:44:31;;;;;;;16.7;12.7;;;;;;;16.9;86.97168;1003.972;;;;
2019/07/13 06:46:56;;;;;;;16.4;13;;;;;;;17.01;86.30762;1003.941;;;;
2019/07/13 06:49:21;;;;;;;15.6;11.9;;;;;;;17.19;85.2041;1004.008;;;;
2019/07/13 06:51:46;;;;;;;18.8;12.4;;;;;;;16.97;85.82227;1003.909;;;;
2019/07/13 06:54:11;;;;;;;18.9;12.1;;;;;;;17.01;85.82031;1004.019;;;;
2019/07/13 06:56:36;;;;;;;16;12;;;;;;;17.06;85.06152;1004.013;;;;
2019/07/13 06:59:02;;;;;;;16.8;11.9;;;;;;;17.02;85.29883;1004.038;;;;
2019/07/13 07:01:27;;;;;;;15.3;11.7;;;;;;;17.25;84.75098;1004.074;;;;
2019/07/13 07:03:52;;;;;;;15.9;11.4;;;;;;;17.39;83.78711;1004.093;;;;
2019/07/13 07:06:17;;;;;;;15;11.7;;;;;;;17.37;84.29688;1004.113;;;;
2019/07/13 07:08:42;;;;;;;14.9;11.5;;;;;;;17.41;83.80371;1004.138;;;;
2019/07/13 07:11:07;;;;;;;15.7;11.5;;;;;;;17.6;82.88574;1004.161;;;;
2019/07/13 07:13:32;;;;;;;16.7;11.3;;;;;;;17.9;81.91895;1004.167;;;;
2019/07/13 07:15:57;;;;;;;16;11.2;;;;;;;17.8;82.05078;1004.212;;;;
2019/07/13 07:18:23;;;;;;;16.6;10.7;;;;;;;17.81;81.9375;1004.26;;;;
2019/07/13 07:20:47;;;;;;;15.2;11.2;;;;;;;17.77;80.41602;1004.25;;;;
2019/07/13 07:23:13;;;;;;;14.8;11.3;;;;;;;17.69;81.50781;1004.25;;;;
2019/07/13 07:25:38;;;;;;;17.8;12.5;;;;;;;17.38;81.82227;1004.293;;;;
2019/07/13 07:28:03;;;;;;;13.6;11.6;;;;;;;17.22;82.60547;1004.3;;;;
2019/07/13 07:30:28;;;;;;;16.7;11.4;;;;;;;17.39;81.79883;1004.262;;;;
2019/07/13 07:32:53;;;;;;;16.7;11.8;;;;;;;17.58;81.47461;1004.294;;;;
2019/07/13 07:35:18;;;;;;;14;11.4;;;;;;;17.58;81.30078;1004.298;;;;
2019/07/13 07:37:43;;;;;;;16;11.5;;;;;;;17.63;81.32227;1004.351;;;;
2019/07/13 07:40:08;;;;;;;13.6;10.9;;;;;;;17.63;80.25195;1004.393;;;;
2019/07/13 07:42:33;;;;;;;13.3;10.5;;;;;;;17.66;79.73242;1004.397;;;;
2019/07/13 07:44:58;;;;;;;14.2;10.2;;;;;;;17.83;79.6709;1004.4;;;;
2019/07/13 07:47:23;;;;;;;14.1;10.7;;;;;;;17.58;79.8457;1004.405;;;;
2019/07/13 07:49:48;;;;;;;13.6;10.8;;;;;;;17.5;80.35645;1004.398;;;;
2019/07/13 07:52:14;;;;;;;15.4;10.3;;;;;;;17.66;79.87207;1004.446;;;;
2019/07/13 07:54:39;;;;;;;13.4;10.8;;;;;;;17.63;80.44922;1004.46;;;;
2019/07/13 07:57:04;;;;;;;16.6;10.5;;;;;;;17.66;78.80176;1004.481;;;;
2019/07/13 07:59:29;;;;;;;13.1;10.7;;;;;;;17.59;79.97363;1004.454;;;;
2019/07/13 08:01:54;;;;;;;12.3;10.3;;;;;;;17.62;80.16699;1004.471;;;;
2019/07/13 08:04:19;;;;;;;15;10.6;;;;;;;17.72;79.5459;1004.505;;;;
2019/07/13 08:06:44;;;;;;;12.2;10.3;;;;;;;17.69;78.79492;1004.542;;;;
2019/07/13 08:09:09;;;;;;;12.6;9.4;;;;;;;17.94;77.83887;1004.493;;;;
2019/07/13 08:11:34;;;;;;;13.1;9.5;;;;;;;17.75;77.43262;1004.449;;;;
2019/07/13 08:13:59;;;;;;;10.7;9.2;;;;;;;17.94;75.60352;1004.477;;;;
2019/07/13 08:16:25;;;;;;;12.2;9.3;;;;;;;17.95;76.09375;1004.503;;;;
2019/07/13 08:18:50;;;;;;;11.6;8.6;;;;;;;18.08;76.59277;1004.505;;;;
2019/07/13 08:21:15;;;;;;;12.2;9.2;;;;;;;18.42;75.82715;1004.508;;;;
2019/07/13 08:23:40;;;;;;;13.6;9.8;;;;;;;18.39;74.99414;1004.527;;;;
2019/07/13 08:26:05;;;;;;;11.1;8.4;;;;;;;19.2;72.80762;1004.561;;;;
2019/07/13 08:28:30;;;;;;;12.4;8.8;;;;;;;19.55;71.42773;1004.595;;;;
2019/07/13 08:30:55;;;;;;;11.3;8.2;;;;;;;20.01;69.53809;1004.547;;;;
2019/07/13 08:33:20;;;;;;;10;7.8;;;;;;;20.52;67.30859;1004.573;;;;
2019/07/13 08:35:45;;;;;;;10.1;7.5;;;;;;;21.7;63.46191;1004.62;;;;
2019/07/13 08:38:10;;;;;;;9.8;7.3;;;;;;;22.94;58.56348;1004.623;;;;
2019/07/13 08:40:36;;;;;;;9.5;6.8;;;;;;;22.33;60.19922;1004.603;;;;
2019/07/13 08:43:01;;;;;;;8.4;6.9;;;;;;;22.2;60.22852;1004.664;;;;
2019/07/13 08:45:26;;;;;;;8.5;6.2;;;;;;;23.41;57.39844;1004.749;;;;
2019/07/13 08:47:51;;;;;;;7.8;6.2;;;;;;;23.83;54.44238;1004.702;;;;
2019/07/13 08:50:16;;;;;;;8.3;6.8;;;;;;;22.98;56.35352;1004.654;;;;
2019/07/13 08:52:41;;;;;;;8.8;6.3;;;;;;;23.59;54.59082;1004.683;;;;
2019/07/13 08:55:06;;;;;;;8.8;6.6;;;;;;;23.74;53.92578;1004.718;;;;
2019/07/13 08:57:31;;;;;;;7.6;6.5;;;;;;;23.46;55.04688;1004.735;;;;
2019/07/13 08:59:56;;;;;;;9;6.3;;;;;;;23.01;56.8877;1004.705;;;;
2019/07/13 09:02:22;;;;;;;8.1;6.4;;;;;;;22.39;57.3623;1004.672;;;;
2019/07/13 09:04:47;;;;;;;8.5;6.1;;;;;;;22.65;57.46582;1004.65;;;;
2019/07/13 09:07:12;;;;;;;7.3;5.9;;;;;;;22.75;57.19727;1004.711;;;;
2019/07/13 09:09:37;;;;;;;7.9;5.9;;;;;;;22.72;56.9209;1004.702;;;;
2019/07/13 09:12:02;;;;;;;6.6;5.6;;;;;;;22.94;57.45703;1004.719;;;;
2019/07/13 09:14:27;;;;;;;7.8;6.3;;;;;;;22.5;56.48242;1004.681;;;;
2019/07/13 09:16:52;;;;;;;6.9;5.7;;;;;;;22.55;57.38184;1004.678;;;;
2019/07/13 09:19:18;;;;;;;6.6;5.2;;;;;;;23.08;56.48438;1004.727;;;;
2019/07/13 09:21:43;;;;;;;6.9;5.8;;;;;;;24.56;52.15723;1004.678;;;;
2019/07/13 09:24:08;;;;;;;8.2;5.1;;;;;;;24.41;51.69043;1004.748;;;;
2019/07/13 09:26:33;;;;;;;6.8;5.4;;;;;;;24.58;48.65039;1004.696;;;;
2019/07/13 09:28:58;;;;;;;7.3;5;;;;;;;24.61;50.08301;1004.679;;;;
2019/07/13 09:31:23;;;;;;;7;5.5;;;;;;;24.37;50.5752;1004.792;;;;
2019/07/13 09:33:48;;;;;;;7.7;5.5;;;;;;;23.81;52.22461;1004.869;;;;
2019/07/13 09:36:13;;;;;;;7.9;5.4;;;;;;;23.93;51.63379;1004.799;;;;
2019/07/13 09:38:39;;;;;;;7.1;5.6;;;;;;;25.42;46.91797;1004.775;;;;
2019/07/13 09:41:04;;;;;;;5.6;4.9;;;;;;;24.83;47.57617;1004.751;;;;
2019/07/13 09:43:29;;;;;;;6;4.8;;;;;;;25.23;46.95703;1004.727;;;;
2019/07/13 09:45:54;;;;;;;5.1;4.3;;;;;;;26.39;43.95703;1004.689;;;;
2019/07/13 09:48:19;;;;;;;5.8;4.7;;;;;;;26.74;42.93457;1004.745;;;;
2019/07/13 09:50:44;;;;;;;7;5.3;;;;;;;25.28;43.88379;1004.716;;;;
2019/07/13 09:53:09;;;;;;;8;4.8;;;;;;;25.7;44.4707;1004.75;;;;
2019/07/13 09:55:34;;;;;;;5.6;4.5;;;;;;;26.8;41.62207;1004.749;;;;
2019/07/13 09:57:59;;;;;;;5.8;4.8;;;;;;;27.12;41.23535;1004.788;;;;
2019/07/13 10:00:25;;;;;;;6.2;4.9;;;;;;;26.94;41.21875;1004.75;;;;
2019/07/13 10:02:50;;;;;;;5.5;4.9;;;;;;;24.8;45.66992;1004.728;;;;
2019/07/13 10:05:15;;;;;;;7.7;5;;;;;;;25.39;44.47461;1004.723;;;;
2019/07/13 10:07:40;;;;;;;5.9;4.9;;;;;;;25.28;44.9375;1004.724;;;;
2019/07/13 10:10:05;;;;;;;5.5;5;;;;;;;26.13;43.9668;1004.752;;;;
2019/07/13 10:12:30;;;;;;;6.8;5.1;;;;;;;24.62;48.13379;1004.757;;;;
2019/07/13 10:14:55;;;;;;;7.1;5;;;;;;;25.1;48.16113;1004.733;;;;
2019/07/13 10:17:20;;;;;;;7.2;5;;;;;;;24.9;48.15234;1004.736;;;;
2019/07/13 10:19:46;;;;;;;6.1;4.9;;;;;;;23.66;47.2998;1004.751;;;;
2019/07/13 10:22:11;;;;;;;6.6;4.9;;;;;;;23.65;49.4668;1004.787;;;;
2019/07/13 10:24:36;;;;;;;5.8;5.1;;;;;;;23.19;50.57129;1004.704;;;;
2019/07/13 10:27:01;;;;;;;7.3;4.8;;;;;;;22.31;52.12988;1004.658;;;;
2019/07/13 10:29:26;;;;;;;6.6;5.2;;;;;;;22.18;52.85449;1004.719;;;;
2019/07/13 10:31:51;;;;;;;6.3;5.1;;;;;;;21.63;55.61816;1004.703;;;;
2019/07/13 10:34:16;;;;;;;6.7;5.5;;;;;;;21.88;54.26367;1004.717;;;;
2019/07/13 10:36:41;;;;;;;5.6;5;;;;;;;21.82;55.31445;1004.717;;;;
2019/07/13 10:39:06;;;;;;;5.7;5.1;;;;;;;23.05;51.14453;1004.722;;;;
2019/07/13 10:41:31;;;;;;;6.2;4.9;;;;;;;23.55;48.08887;1004.702;;;;
2019/07/13 10:43:56;;;;;;;6.5;4.5;;;;;;;24.26;46.89063;1004.678;;;;
2019/07/13 10:46:22;;;;;;;5;4.5;;;;;;;24.4;46.37402;1004.707;;;;
2019/07/13 10:48:47;;;;;;;4.9;4.4;;;;;;;24.23;45.76465;1004.662;;;;
2019/07/13 10:51:12;;;;;;;5.7;4.7;;;;;;;24.81;44.98438;1004.615;;;;
2019/07/13 10:53:37;;;;;;;5.5;4.6;;;;;;;25.27;43.46777;1004.632;;;;
2019/07/13 10:56:02;;;;;;;5.6;4.6;;;;;;;25.12;43.9873;1004.634;;;;
2019/07/13 10:58:27;;;;;;;6.9;4.5;;;;;;;24.94;44.56055;1004.703;;;;
2019/07/13 11:00:52;;;;;;;6.3;4.3;;;;;;;24.32;46.0332;1004.719;;;;
2019/07/13 11:03:17;;;;;;;6.2;4.5;;;;;;;24.27;46.99707;1004.72;;;;
2019/07/13 11:05:42;;;;;;;6.4;4.6;;;;;;;24.26;47.38574;1004.725;;;;
2019/07/13 11:08:07;;;;;;;7.3;4.5;;;;;;;24.91;46.08203;1004.7;;;;
2019/07/13 11:10:32;;;;;;;4.9;4.1;;;;;;;25.53;46.04102;1004.675;;;;
2019/07/13 11:12:57;;;;;;;5.1;4.3;;;;;;;25.36;45.4668;1004.613;;;;
2019/07/13 11:15:22;;;;;;;6.2;4;;;;;;;25.96;42.62305;1004.629;;;;
2019/07/13 11:17:48;;;;;;;4.7;4;;;;;;;25.91;40.99414;1004.532;;;;
2019/07/13 11:20:13;;;;;;;5.9;4.2;;;;;;;24.66;43.55078;1004.518;;;;
2019/07/13 11:22:40;;;;;;;7.8;4;;;;;;;25.05;44.52441;1004.46;;;;
2019/07/13 11:25:03;;;;;;;4.7;4.2;;;;;;;24.44;44.87598;1004.396;;;;
2019/07/13 11:27:28;;;;;;;5.3;4.1;;;;;;;24.81;44.18066;1004.395;;;;
2019/07/13 11:29:53;;;;;;;6.5;4.8;;;;;;;24.45;45.04297;1004.383;;;;
2019/07/13 11:32:18;;;;;;;6.9;4.4;;;;;;;24.8;44.26172;1004.432;;;;
2019/07/13 11:34:43;;;;;;;5.3;4.1;;;;;;;24.24;45.06836;1004.437;;;;
2019/07/13 11:37:08;;;;;;;5;4.3;;;;;;;24.42;45.37109;1004.335;;;;
2019/07/13 11:39:33;;;;;;;4.7;4.2;;;;;;;25.25;43.31152;1004.354;;;;
2019/07/13 11:41:59;;;;;;;6.6;4.4;;;;;;;25.23;42.74316;1004.288;;;;
2019/07/13 11:44:24;;;;;;;5.5;4.1;;;;;;;25.04;44.17969;1004.307;;;;
2019/07/13 11:46:49;;;;;;;7.6;4.1;;;;;;;24.67;45.91602;1004.338;;;;
2019/07/13 11:49:14;;;;;;;6.5;4.6;;;;;;;24.57;45.75098;1004.288;;;;
2019/07/13 11:51:39;;;;;;;4.9;4.2;;;;;;;24.44;45.82129;1004.298;;;;
2019/07/13 11:54:04;;;;;;;4.8;4.3;;;;;;;24.95;45.06934;1004.317;;;;
2019/07/13 11:56:29;;;;;;;4.3;3.9;;;;;;;24.8;47.3252;1004.33;;;;
2019/07/13 11:58:55;;;;;;;5.2;3.9;;;;;;;25.38;44.60352;1004.338;;;;
2019/07/13 12:01:20;;;;;;;7.2;4.3;;;;;;;25.34;44.14941;1004.26;;;;
2019/07/13 12:03:45;;;;;;;5.4;3.9;;;;;;;25.88;43.45703;1004.297;;;;
2019/07/13 12:06:10;;;;;;;4.9;4.4;;;;;;;25.52;42.78223;1004.305;;;;
2019/07/13 12:08:35;;;;;;;5;3.9;;;;;;;25.73;42.6123;1004.275;;;;
2019/07/13 12:11:00;;;;;;;4.6;4.1;;;;;;;24.99;44.13965;1004.247;;;;
2019/07/13 12:13:25;;;;;;;4.4;4;;;;;;;24.74;44.63477;1004.251;;;;
2019/07/13 12:15:50;;;;;;;8.4;4.2;;;;;;;24.75;46.64453;1004.243;;;;
2019/07/13 12:18:15;;;;;;;4.8;4.3;;;;;;;24.47;45.78906;1004.234;;;;
2019/07/13 12:20:41;;;;;;;7.4;4.3;;;;;;;24.62;46.04102;1004.196;;;;
2019/07/13 12:23:06;;;;;;;4.6;4.2;;;;;;;24.59;46.52344;1004.251;;;;
2019/07/13 12:25:31;;;;;;;5.9;4.4;;;;;;;24.04;47.39746;1004.273;;;;
2019/07/13 12:27:56;;;;;;;4.9;4.4;;;;;;;24.3;46.8125;1004.243;;;;
2019/07/13 12:30:21;;;;;;;4.6;4;;;;;;;24.7;46.28613;1004.213;;;;
2019/07/13 12:32:46;;;;;;;7.3;4.1;;;;;;;25.13;43.59668;1004.211;;;;
2019/07/13 12:35:11;;;;;;;5.4;3.7;;;;;;;25.2;42.5625;1004.192;;;;
2019/07/13 12:37:36;;;;;;;4.5;4.1;;;;;;;25.48;42.3291;1004.163;;;;
2019/07/13 12:40:02;;;;;;;4.3;3.9;;;;;;;25.32;41.99414;1004.179;;;;
2019/07/13 12:42:27;;;;;;;4.2;3.5;;;;;;;25.6;41.80664;1004.201;;;;
2019/07/13 12:44:52;;;;;;;4.1;3.7;;;;;;;26.09;40.89258;1004.087;;;;
2019/07/13 12:47:17;;;;;;;5.4;4;;;;;;;26.46;41.53027;1004.093;;;;
2019/07/13 12:49:42;;;;;;;5.3;3.6;;;;;;;26.99;39.46484;1004.062;;;;
2019/07/13 12:52:07;;;;;;;4.3;3.6;;;;;;;25.88;40.68262;1003.97;;;;
2019/07/13 12:54:32;;;;;;;4.3;3.9;;;;;;;24.96;41.41504;1003.92;;;;
2019/07/13 12:56:58;;;;;;;5.2;4;;;;;;;25.18;41.93262;1003.982;;;;
2019/07/13 12:59:23;;;;;;;4.2;3.7;;;;;;;24.69;43.06836;1004.015;;;;
2019/07/13 13:01:48;;;;;;;5.4;4.1;;;;;;;24.58;42.99902;1004.004;;;;
2019/07/13 13:04:13;;;;;;;5.2;4.2;;;;;;;24.62;43.2041;1003.941;;;;
2019/07/13 13:06:39;;;;;;;4;3.6;;;;;;;25.13;42.44824;1003.912;;;;
2019/07/13 13:09:04;;;;;;;4.4;3.6;;;;;;;25.12;42.73145;1003.892;;;;
2019/07/13 13:11:29;;;;;;;6.2;4.4;;;;;;;25.35;42.43457;1003.941;;;;
2019/07/13 13:13:54;;;;;;;3.7;3.3;;;;;;;24.79;42.77148;1003.905;;;;
2019/07/13 13:16:19;;;;;;;4.1;3.6;;;;;;;24.15;43.51367;1003.902;;;;
2019/07/13 13:18:44;;;;;;;7.2;5.8;;;;;;;23.75;44.9248;1003.951;;;;
2019/07/13 13:21:09;;;;;;;3.8;3.4;;;;;;;23.95;44.88574;1003.987;;;;
2019/07/13 13:23:34;;;;;;;3.7;3.4;;;;;;;24.42;44.4375;1003.947;;;;
2019/07/13 13:26:00;;;;;;;4.4;3.3;;;;;;;24.59;43.03516;1003.976;;;;
2019/07/13 13:28:25;;;;;;;5;3.3;;;;;;;24.56;42.85547;1003.967;;;;
2019/07/13 13:30:50;;;;;;;4.1;3.3;;;;;;;24.13;43.05078;1003.922;;;;
2019/07/13 13:33:15;;;;;;;3.7;3.3;;;;;;;24.5;43.42969;1003.933;;;;
2019/07/13 13:35:40;;;;;;;4.5;3.3;;;;;;;24.55;43.93066;1003.955;;;;
2019/07/13 13:38:05;;;;;;;4.4;3.7;;;;;;;24.99;44.16406;1003.958;;;;
2019/07/13 13:40:31;;;;;;;4.2;3.6;;;;;;;25.19;44.0166;1003.927;;;;
2019/07/13 13:42:56;;;;;;;4.5;3.6;;;;;;;25.71;43.52441;1003.933;;;;
2019/07/13 13:45:21;;;;;;;4.5;3.8;;;;;;;25.81;43.15234;1003.89;;;;
2019/07/13 13:47:46;;;;;;;4.5;3.8;;;;;;;25.37;43.44238;1003.881;;;;
2019/07/13 13:50:11;;;;;;;4.4;3.7;;;;;;;25.91;43.23438;1003.856;;;;
2019/07/13 13:52:37;;;;;;;5.1;4.1;;;;;;;25.93;44.41016;1003.849;;;;
2019/07/13 13:55:01;;;;;;;4.7;4.2;;;;;;;26.18;42.10938;1003.865;;;;
2019/07/13 13:57:26;;;;;;;4.5;4.1;;;;;;;25.24;43.98633;1003.838;;;;
2019/07/13 13:59:52;;;;;;;6.5;4;;;;;;;25.45;44.00684;1003.81;;;;
2019/07/13 14:02:17;;;;;;;4.7;4.1;;;;;;;25.03;45.82324;1003.861;;;;